Time;durP1;ratioP1;P1;durP2;ratioP2;P2;SDS_P1;SDS_P2;PMS_P1;PMS_P2;Temp;Humidity;BMP_temperature;BMP_pressure;BME280_temperature;BME280_humidity;BME280_pressure;Samples;Min_cycle;Max_cycle;Signal;HPM_P1;HPM_P2
2022/08/07 00:01:25;;;;;;;0.65;0.60;;;16.50;99.30;;;;;;5076069;28;20567;-57
2022/08/07 00:03:51;;;;;;;0.90;0.90;;;16.50;99.50;;;;;;5058329;28;20205;-57
2022/08/07 00:06:17;;;;;;;0.70;0.70;;;16.50;99.60;;;;;;5057970;28;20210;-57
2022/08/07 00:08:43;;;;;;;1.38;0.93;;;16.50;99.40;;;;;;5041342;28;20170;-57
2022/08/07 00:11:09;;;;;;;0.80;0.80;;;16.50;99.50;;;;;;5057748;28;20189;-57
2022/08/07 00:13:36;;;;;;;0.80;0.80;;;16.50;99.50;;;;;;5057816;28;20281;-57
2022/08/07 00:16:04;;;;;;;1.00;0.90;;;16.40;99.70;;;;;;5075750;28;20186;-57
2022/08/07 00:18:30;;;;;;;1.38;0.90;;;16.40;99.90;;;;;;5075669;28;20635;-57
2022/08/07 00:21:02;;;;;;;0.60;0.60;;;16.30;99.80;;;;;;5075649;28;20175;-57
2022/08/07 00:23:29;;;;;;;0.63;0.63;;;16.20;99.90;;;;;;5075464;28;20632;-57
2022/08/07 00:25:55;;;;;;;0.60;0.60;;;16.20;99.90;;;;;;5075626;28;20174;-57
2022/08/07 00:28:21;;;;;;;1.00;0.77;;;16.20;99.90;;;;;;5075604;28;20231;-57
2022/08/07 00:30:46;;;;;;;1.05;0.80;;;16.10;99.90;;;;;;5057636;28;20179;-57
2022/08/07 00:33:12;;;;;;;1.05;0.90;;;16.00;99.90;;;;;;5075392;28;20273;-57
2022/08/07 00:35:38;;;;;;;1.15;1.00;;;16.00;99.90;;;;;;5075319;28;20505;-57
2022/08/07 00:38:04;;;;;;;1.00;0.90;;;16.00;99.90;;;;;;5075242;28;20531;-57
2022/08/07 00:40:31;;;;;;;0.88;0.80;;;16.00;99.90;;;;;;5057339;28;20272;-57
2022/08/07 00:42:56;;;;;;;0.80;0.80;;;16.00;99.90;;;;;;5075607;28;20244;-57
2022/08/07 00:45:22;;;;;;;1.23;1.00;;;15.90;99.90;;;;;;5057236;28;20178;-57
2022/08/07 00:47:48;;;;;;;1.27;0.80;;;16.00;99.90;;;;;;5075054;28;20186;-57
2022/08/07 00:50:15;;;;;;;1.35;1.10;;;15.90;99.90;;;;;;5075047;28;20175;-58
2022/08/07 00:52:41;;;;;;;1.15;0.88;;;15.90;99.90;;;;;;5074870;28;20178;-57
2022/08/07 00:55:08;;;;;;;1.17;1.00;;;15.90;99.90;;;;;;5075255;28;20174;-57
2022/08/07 00:57:34;;;;;;;1.10;1.00;;;15.90;99.90;;;;;;5075172;28;20640;-57
2022/08/07 01:00:00;;;;;;;1.17;1.08;;;15.90;99.90;;;;;;5074906;28;20211;-57
2022/08/07 01:02:25;;;;;;;1.10;1.00;;;15.80;99.90;;;;;;5040368;28;20185;-57
2022/08/07 01:04:51;;;;;;;1.20;1.10;;;15.80;99.90;;;;;;5074733;28;20166;-57
2022/08/07 01:07:20;;;;;;;0.93;0.85;;;15.70;99.90;;;;;;5074032;28;20543;-56
2022/08/07 01:09:46;;;;;;;1.17;0.70;;;15.70;99.90;;;;;;5074676;28;20256;-57
2022/08/07 01:12:13;;;;;;;0.82;0.75;;;15.60;99.90;;;;;;5074441;28;20214;-57
2022/08/07 01:14:39;;;;;;;1.10;0.85;;;15.50;99.90;;;;;;5057001;28;20255;-58
2022/08/07 01:17:04;;;;;;;1.00;1.00;;;15.50;99.90;;;;;;5074505;28;20171;-54
2022/08/07 01:19:32;;;;;;;0.80;0.80;;;15.40;99.90;;;;;;5074408;28;20208;-57
2022/08/07 01:21:59;;;;;;;1.75;1.00;;;15.30;99.90;;;;;;5056433;28;20632;-57
2022/08/07 01:24:28;;;;;;;1.15;1.05;;;15.20;99.90;;;;;;5074259;28;20664;-57
2022/08/07 01:26:54;;;;;;;1.70;1.30;;;15.20;99.90;;;;;;5056715;28;20175;-57
2022/08/07 01:29:23;;;;;;;2.35;1.15;;;15.10;99.90;;;;;;5074264;28;20196;-57
2022/08/07 01:31:50;;;;;;;1.17;1.08;;;15.10;99.90;;;;;;5074234;28;20175;-57
2022/08/07 01:34:19;;;;;;;1.38;1.27;;;15.10;99.90;;;;;;5056532;28;20229;-57
2022/08/07 01:36:48;;;;;;;1.13;1.02;;;15.10;99.90;;;;;;5074331;28;20608;-57
2022/08/07 01:39:15;;;;;;;0.95;0.85;;;15.00;99.90;;;;;;5074159;28;20213;-57
2022/08/07 01:41:42;;;;;;;1.33;1.23;;;15.00;99.90;;;;;;5073877;28;20182;-54
2022/08/07 01:44:09;;;;;;;1.30;1.05;;;15.00;99.90;;;;;;5073979;28;20197;-57
2022/08/07 01:46:35;;;;;;;1.33;1.17;;;15.00;99.90;;;;;;5073846;28;20632;-57
2022/08/07 01:49:01;;;;;;;0.90;0.90;;;14.90;99.90;;;;;;5074145;28;20178;-57
2022/08/07 01:51:29;;;;;;;1.10;1.00;;;14.80;99.90;;;;;;5073948;28;20182;-57
2022/08/07 01:53:59;;;;;;;2.35;1.30;;;14.80;99.90;;;;;;5073934;28;20167;-57
2022/08/07 01:56:28;;;;;;;2.53;1.40;;;14.80;99.90;;;;;;5073827;28;20162;-57
2022/08/07 01:59:06;;;;;;;1.65;1.17;;;15.00;99.90;;;;;;5039077;28;20209;-56
2022/08/07 02:01:38;;;;;;;1.95;1.42;;;15.00;99.90;;;;;;5073750;28;20155;-57
2022/08/07 02:04:16;;;;;;;2.10;1.20;;;14.90;99.90;;;;;;5073716;28;20632;-54
2022/08/07 02:06:43;;;;;;;1.40;1.30;;;14.90;99.90;;;;;;5073778;28;20170;-57
2022/08/07 02:09:11;;;;;;;1.50;1.20;;;14.80;99.90;;;;;;5073539;28;20183;-58
2022/08/07 02:11:41;;;;;;;1.15;1.05;;;14.80;99.90;;;;;;5073333;28;20178;-58
2022/08/07 02:14:09;;;;;;;1.30;1.10;;;14.80;99.90;;;;;;5073396;28;20198;-57
2022/08/07 02:16:37;;;;;;;1.23;1.00;;;14.80;99.90;;;;;;5073644;28;20167;-57
2022/08/07 02:19:06;;;;;;;1.30;1.20;;;14.70;99.90;;;;;;5072580;28;20206;-57
2022/08/07 02:21:34;;;;;;;1.40;1.30;;;14.60;99.90;;;;;;5055481;28;20175;-57
2022/08/07 02:24:01;;;;;;;1.25;1.15;;;14.60;99.90;;;;;;5073373;28;20647;-58
2022/08/07 02:26:28;;;;;;;1.73;1.50;;;14.70;99.90;;;;;;5073254;28;20166;-57
2022/08/07 02:28:55;;;;;;;1.40;1.30;;;14.70;99.90;;;;;;5073596;28;20182;-57
2022/08/07 02:31:22;;;;;;;1.27;1.15;;;14.70;99.90;;;;;;5073420;28;20224;-57
2022/08/07 02:33:50;;;;;;;1.10;1.00;;;14.70;99.90;;;;;;5055447;28;20189;-57
2022/08/07 02:36:16;;;;;;;1.50;1.35;;;14.60;99.90;;;;;;5073242;28;20191;-57
2022/08/07 02:38:43;;;;;;;2.13;1.35;;;14.60;99.90;;;;;;5073121;28;20266;-57
2022/08/07 02:41:11;;;;;;;2.00;1.80;;;14.70;99.90;;;;;;5073259;28;20178;-57
2022/08/07 02:43:39;;;;;;;1.42;1.33;;;14.80;99.90;;;;;;5073367;28;20167;-57
2022/08/07 02:46:07;;;;;;;2.15;1.80;;;14.90;99.90;;;;;;5073426;28;20166;-57
2022/08/07 02:48:33;;;;;;;2.13;1.77;;;14.90;99.90;;;;;;5073148;28;20269;-57
2022/08/07 02:51:06;;;;;;;1.35;1.23;;;14.90;99.90;;;;;;5073056;28;20260;-57
2022/08/07 02:53:34;;;;;;;1.85;1.50;;;14.90;99.90;;;;;;5073119;28;20172;-57
2022/08/07 02:56:03;;;;;;;2.15;1.70;;;14.90;99.90;;;;;;5055251;28;20170;-57
2022/08/07 02:58:30;;;;;;;2.05;1.65;;;14.80;99.90;;;;;;5073079;28;20523;-57
2022/08/07 03:00:58;;;;;;;2.05;1.60;;;14.90;99.90;;;;;;5055302;28;20221;-57
2022/08/07 03:03:26;;;;;;;1.80;1.50;;;14.80;99.90;;;;;;5073001;28;20175;-58
2022/08/07 03:05:53;;;;;;;2.17;1.73;;;14.80;99.90;;;;;;5072863;28;20179;-58
2022/08/07 03:08:20;;;;;;;1.88;1.65;;;14.80;99.90;;;;;;5073416;28;20170;-57
2022/08/07 03:10:47;;;;;;;1.50;1.33;;;14.70;99.90;;;;;;5072885;28;20186;-57
2022/08/07 03:13:14;;;;;;;2.13;1.50;;;14.70;99.90;;;;;;5072969;28;20681;-57
2022/08/07 03:15:40;;;;;;;2.83;1.98;;;14.70;99.90;;;;;;5072988;28;20173;-57
2022/08/07 03:18:06;;;;;;;1.65;1.55;;;14.80;99.90;;;;;;5055143;28;20179;-57
2022/08/07 03:20:33;;;;;;;1.85;1.55;;;14.70;99.90;;;;;;5072650;28;20206;-57
2022/08/07 03:22:59;;;;;;;1.52;1.42;;;14.70;99.90;;;;;;5073008;28;20175;-57
2022/08/07 03:25:27;;;;;;;1.55;1.40;;;14.70;99.90;;;;;;5055051;28;20167;-57
2022/08/07 03:27:54;;;;;;;2.05;1.70;;;14.70;99.90;;;;;;5054970;28;20594;-57
2022/08/07 03:30:21;;;;;;;2.03;1.77;;;14.70;99.90;;;;;;5073549;28;20257;-57
2022/08/07 03:32:50;;;;;;;2.60;1.58;;;14.60;99.90;;;;;;5076523;28;20174;-57
2022/08/07 03:35:21;;;;;;;1.50;1.27;;;14.60;99.90;;;;;;5076687;28;20628;-57
2022/08/07 03:37:56;;;;;;;2.47;1.77;;;14.50;99.90;;;;;;5076602;28;20181;-57
2022/08/07 03:40:23;;;;;;;1.80;1.60;;;14.60;99.90;;;;;;5076400;28;20233;-57
2022/08/07 03:42:51;;;;;;;2.08;1.70;;;14.50;99.90;;;;;;5058461;28;20578;-58
2022/08/07 03:45:18;;;;;;;2.58;1.80;;;14.40;99.90;;;;;;5076291;28;20211;-55
2022/08/07 03:47:44;;;;;;;2.05;1.60;;;14.30;99.90;;;;;;5076209;28;20180;-57
2022/08/07 03:50:09;;;;;;;2.22;1.30;;;14.20;99.90;;;;;;5058921;28;20253;-58
2022/08/07 03:52:36;;;;;;;1.85;1.40;;;14.10;99.90;;;;;;5076285;28;20628;-57
2022/08/07 03:55:03;;;;;;;2.25;1.48;;;14.10;99.90;;;;;;5076236;28;20171;-57
2022/08/07 03:57:30;;;;;;;2.53;1.90;;;14.00;99.90;;;;;;5058327;28;20262;-57
2022/08/07 03:59:57;;;;;;;1.67;1.58;;;13.90;99.90;;;;;;5075883;28;20234;-57
2022/08/07 04:02:23;;;;;;;2.10;1.58;;;13.80;99.90;;;;;;5076460;28;20562;-58
2022/08/07 04:04:49;;;;;;;1.90;1.70;;;13.80;99.90;;;;;;5076100;28;20258;-58
2022/08/07 04:07:16;;;;;;;2.85;1.92;;;13.80;99.90;;;;;;5058293;28;20173;-58
2022/08/07 04:09:44;;;;;;;1.77;1.60;;;13.80;99.90;;;;;;5076174;28;20235;-57
2022/08/07 04:12:10;;;;;;;2.05;1.73;;;13.80;99.90;;;;;;5075734;28;20210;-57
2022/08/07 04:14:37;;;;;;;1.70;1.52;;;13.70;99.90;;;;;;5075709;28;20178;-57
2022/08/07 04:17:03;;;;;;;2.35;1.95;;;13.70;99.90;;;;;;5075661;28;20211;-57
2022/08/07 04:19:29;;;;;;;1.73;1.60;;;13.70;99.90;;;;;;5075889;28;20246;-57
2022/08/07 04:21:55;;;;;;;4.30;1.77;;;13.90;99.90;;;;;;5075762;28;20179;-58
2022/08/07 04:24:21;;;;;;;2.15;1.70;;;14.10;99.90;;;;;;5075659;28;20266;-57
2022/08/07 04:26:47;;;;;;;1.88;1.60;;;14.20;99.90;;;;;;5041046;28;20178;-58
2022/08/07 04:29:13;;;;;;;1.80;1.52;;;14.30;99.90;;;;;;5075498;28;20697;-57
2022/08/07 04:31:39;;;;;;;1.73;1.30;;;14.30;99.90;;;;;;5057652;28;20575;-58
2022/08/07 04:34:06;;;;;;;1.70;1.60;;;14.20;99.90;;;;;;5075540;28;20256;-56
2022/08/07 04:36:33;;;;;;;1.85;1.60;;;14.10;99.90;;;;;;5075492;28;20186;-57
2022/08/07 04:39:00;;;;;;;1.60;1.50;;;14.20;99.90;;;;;;5057859;28;20206;-57
2022/08/07 04:41:26;;;;;;;1.48;1.30;;;14.30;99.90;;;;;;5075343;28;20174;-58
2022/08/07 04:43:52;;;;;;;1.90;1.52;;;14.30;99.90;;;;;;5074391;28;20171;-58
2022/08/07 04:46:35;;;;;;;1.95;1.27;;;14.30;99.90;;;;;;5075413;28;20163;-57
2022/08/07 04:49:38;;;;;;;1.67;1.50;;;14.40;99.90;;;;;;5075315;28;20170;-57
2022/08/07 04:52:04;;;;;;;1.75;1.42;;;14.40;99.90;;;;;;5074948;28;20263;-57
2022/08/07 04:54:44;;;;;;;1.98;1.58;;;14.40;99.90;;;;;;5075235;28;20263;-57
2022/08/07 04:57:23;;;;;;;1.67;1.58;;;14.40;99.90;;;;;;5074950;28;20634;-57
2022/08/07 04:59:58;;;;;;;2.10;1.58;;;14.50;99.90;;;;;;5074864;28;20677;-57
2022/08/07 05:02:41;;;;;;;1.83;1.27;;;14.50;99.90;;;;;;5056943;28;20174;-57
2022/08/07 05:05:21;;;;;;;2.30;1.55;;;14.50;99.90;;;;;;5075298;28;20192;-57
2022/08/07 05:07:57;;;;;;;1.65;1.40;;;14.70;99.90;;;;;;5074852;28;20522;-57
2022/08/07 05:10:26;;;;;;;1.40;1.27;;;14.70;99.90;;;;;;5074677;28;20625;-58
2022/08/07 05:13:02;;;;;;;2.00;1.65;;;14.80;99.90;;;;;;5074448;28;20179;-57
2022/08/07 05:15:34;;;;;;;1.60;1.40;;;14.90;99.90;;;;;;5074856;28;20515;-56
2022/08/07 05:18:12;;;;;;;2.05;1.40;;;15.00;99.90;;;;;;5074771;28;20166;-57
2022/08/07 05:20:41;;;;;;;2.20;1.38;;;15.00;99.90;;;;;;5074594;28;20284;-57
2022/08/07 05:23:29;;;;;;;1.52;1.38;;;15.10;99.90;;;;;;5074422;28;20628;-57
2022/08/07 05:25:56;;;;;;;1.55;1.30;;;15.20;99.90;;;;;;5074817;28;20545;-57
2022/08/07 05:28:23;;;;;;;2.80;1.30;;;15.10;99.90;;;;;;5074546;28;20178;-57
2022/08/07 05:30:52;;;;;;;1.63;1.48;;;15.20;99.90;;;;;;5074342;28;20647;-58
2022/08/07 05:33:18;;;;;;;1.65;1.20;;;15.20;99.90;;;;;;5074095;28;20666;-57
2022/08/07 05:35:45;;;;;;;1.58;1.27;;;15.20;99.90;;;;;;5074198;28;20261;-57
2022/08/07 05:38:11;;;;;;;1.58;1.48;;;15.40;99.90;;;;;;5074118;28;20516;-57
2022/08/07 05:40:38;;;;;;;1.80;1.30;;;15.60;99.90;;;;;;5074172;28;20268;-58
2022/08/07 05:43:04;;;;;;;1.50;1.38;;;15.80;99.90;;;;;;5056559;28;20197;-57
2022/08/07 05:45:30;;;;;;;2.05;1.30;;;16.00;99.90;;;;;;5073498;28;20197;-57
2022/08/07 05:47:57;;;;;;;1.30;1.20;;;16.20;99.90;;;;;;5051527;28;20178;-57
2022/08/07 05:50:24;;;;;;;2.00;1.42;;;16.40;99.90;;;;;;5073558;28;20186;-57
2022/08/07 05:52:49;;;;;;;2.00;1.58;;;16.70;99.90;;;;;;5073725;28;20694;-57
2022/08/07 05:55:15;;;;;;;2.33;1.75;;;16.90;99.90;;;;;;5073652;28;20264;-57
2022/08/07 05:57:42;;;;;;;1.85;1.63;;;17.00;99.90;;;;;;5055613;28;20267;-57
2022/08/07 06:00:10;;;;;;;1.92;1.45;;;17.10;99.90;;;;;;5072335;28;20203;-57
2022/08/07 06:02:38;;;;;;;2.15;1.50;;;17.20;99.90;;;;;;5073477;28;20171;-57
2022/08/07 06:05:10;;;;;;;2.08;1.40;;;17.40;99.90;;;;;;5055719;28;20167;-57
2022/08/07 06:07:36;;;;;;;2.45;1.63;;;17.50;99.90;;;;;;5055640;28;20684;-58
2022/08/07 06:10:03;;;;;;;1.98;1.52;;;17.30;99.90;;;;;;5073382;28;20305;-57
2022/08/07 06:12:29;;;;;;;2.17;1.65;;;17.40;99.90;;;;;;5073183;28;20261;-56
2022/08/07 06:14:57;;;;;;;2.90;1.88;;;17.70;99.90;;;;;;5073486;28;20690;-56
2022/08/07 06:17:23;;;;;;;1.95;1.73;;;18.00;99.90;;;;;;5073172;28;20178;-57
2022/08/07 06:19:49;;;;;;;2.17;1.73;;;18.20;99.90;;;;;;5072998;28;20207;-57
2022/08/07 06:22:17;;;;;;;2.45;1.85;;;18.10;99.90;;;;;;5073344;28;20325;-57
2022/08/07 06:24:43;;;;;;;1.88;1.25;;;18.00;99.90;;;;;;5072995;28;20636;-57
2022/08/07 06:27:09;;;;;;;1.52;1.38;;;18.00;99.90;;;;;;5055372;28;20194;-57
2022/08/07 06:29:35;;;;;;;1.90;1.60;;;18.00;99.90;;;;;;5072775;28;20232;-58
2022/08/07 06:32:00;;;;;;;1.65;1.40;;;18.30;99.90;;;;;;5055079;28;20175;-57
2022/08/07 06:34:27;;;;;;;1.77;1.58;;;18.20;99.90;;;;;;5073012;28;20189;-57
2022/08/07 06:36:52;;;;;;;1.55;1.30;;;18.40;99.90;;;;;;5073243;28;20171;-56
2022/08/07 06:39:20;;;;;;;1.77;1.40;;;18.50;99.90;;;;;;5072869;28;20750;-56
2022/08/07 06:41:52;;;;;;;1.85;1.42;;;18.30;99.90;;;;;;5072975;28;20182;-57
2022/08/07 06:44:20;;;;;;;1.80;1.50;;;18.30;99.90;;;;;;5072932;28;20187;-54
2022/08/07 06:46:46;;;;;;;1.35;1.25;;;18.80;99.90;;;;;;5072831;28;20178;-57
2022/08/07 06:49:12;;;;;;;2.30;1.60;;;19.20;99.90;;;;;;5073222;28;20189;-56
2022/08/07 06:51:39;;;;;;;1.58;1.40;;;19.30;99.80;;;;;;5055170;28;20259;-57
2022/08/07 06:54:08;;;;;;;2.78;1.65;;;19.60;99.30;;;;;;5073133;28;20624;-56
2022/08/07 06:56:45;;;;;;;1.23;1.13;;;19.70;99.20;;;;;;5072725;28;20174;-58
2022/08/07 06:59:15;;;;;;;1.77;1.23;;;19.80;98.80;;;;;;5072641;28;20209;-57
2022/08/07 07:01:43;;;;;;;1.58;1.17;;;19.70;98.70;;;;;;5054946;28;20639;-57
2022/08/07 07:04:09;;;;;;;1.58;1.20;;;19.80;98.60;;;;;;5072846;28;20269;-57
2022/08/07 07:06:36;;;;;;;2.45;1.52;;;19.80;98.40;;;;;;5075350;28;20324;-56
2022/08/07 07:09:26;;;;;;;1.88;1.50;;;19.70;98.70;;;;;;5042451;28;20182;-56
2022/08/07 07:12:07;;;;;;;1.20;1.10;;;20.00;98.50;;;;;;5062060;28;20693;-57
2022/08/07 07:14:48;;;;;;;1.50;1.17;;;19.90;98.20;;;;;;5077237;28;20194;-57
2022/08/07 07:17:40;;;;;;;1.00;0.88;;;19.80;98.30;;;;;;5076912;28;20166;-56
2022/08/07 07:20:11;;;;;;;1.83;1.00;;;19.80;98.30;;;;;;5076718;28;20214;-57
2022/08/07 07:22:39;;;;;;;2.17;1.20;;;19.80;97.60;;;;;;5076833;28;20170;-57
2022/08/07 07:25:07;;;;;;;1.00;0.73;;;19.90;97.50;;;;;;5076732;28;20174;-56
2022/08/07 07:27:38;;;;;;;0.70;0.68;;;20.20;97.20;;;;;;5076585;28;20420;-57
2022/08/07 07:30:06;;;;;;;1.10;0.75;;;20.50;97.00;;;;;;5074254;28;20513;-54
2022/08/07 07:32:37;;;;;;;1.27;0.80;;;20.60;96.50;;;;;;5074715;28;20607;-57
2022/08/07 07:35:04;;;;;;;0.88;0.70;;;20.60;96.00;;;;;;5074820;28;20229;-57
2022/08/07 07:37:33;;;;;;;0.88;0.80;;;20.20;96.00;;;;;;5058693;28;20171;-57
2022/08/07 07:40:02;;;;;;;0.70;0.63;;;20.20;96.40;;;;;;5076426;28;20263;-57
2022/08/07 07:42:29;;;;;;;0.85;0.70;;;20.30;96.10;;;;;;5076288;28;20666;-55
2022/08/07 07:44:58;;;;;;;1.30;0.82;;;20.70;96.10;;;;;;5058426;28;20170;-57
2022/08/07 07:47:25;;;;;;;1.17;0.95;;;20.60;96.00;;;;;;5076206;28;20199;-57
2022/08/07 07:49:51;;;;;;;1.60;0.70;;;20.60;95.80;;;;;;5075052;28;20182;-57
2022/08/07 07:52:19;;;;;;;0.90;0.70;;;20.90;95.70;;;;;;5076077;28;20224;-57
2022/08/07 07:54:46;;;;;;;1.02;0.75;;;20.60;95.50;;;;;;5076041;28;20176;-58
2022/08/07 07:57:13;;;;;;;0.80;0.70;;;21.10;95.40;;;;;;5076166;28;20202;-58
2022/08/07 07:59:41;;;;;;;0.88;0.80;;;21.30;94.70;;;;;;5075750;28;20207;-57
2022/08/07 08:02:10;;;;;;;0.90;0.80;;;21.60;95.00;;;;;;5075958;28;20546;-58
2022/08/07 08:04:36;;;;;;;2.00;0.90;;;21.20;94.70;;;;;;5075605;28;20175;-57
2022/08/07 08:07:04;;;;;;;1.15;0.80;;;21.30;94.90;;;;;;5076185;28;20469;-57
2022/08/07 08:09:32;;;;;;;1.50;0.98;;;21.60;94.40;;;;;;5075863;28;20257;-57
2022/08/07 08:11:58;;;;;;;1.05;0.70;;;21.20;94.30;;;;;;5075628;28;20202;-58
2022/08/07 08:14:24;;;;;;;0.75;0.75;;;21.10;94.70;;;;;;5075911;28;20190;-57
2022/08/07 08:16:51;;;;;;;0.95;0.70;;;21.10;94.90;;;;;;5075690;28;20185;-58
2022/08/07 08:19:26;;;;;;;1.15;0.90;;;21.30;94.50;;;;;;5075118;28;20290;-56
2022/08/07 08:27:31;;;;;;;0.70;0.70;;;21.70;94.50;;;;;;5055762;28;20647;-57
2022/08/07 08:30:05;;;;;;;1.40;0.90;;;22.10;93.70;;;;;;5055149;28;20171;-57
2022/08/07 08:32:36;;;;;;;0.98;0.90;;;22.20;93.70;;;;;;5055540;28;20167;-57
2022/08/07 08:35:03;;;;;;;0.80;0.75;;;22.00;93.80;;;;;;5055251;28;20172;-57
2022/08/07 08:37:33;;;;;;;1.73;1.00;;;21.60;94.30;;;;;;5037624;28;20205;-57
2022/08/07 08:40:00;;;;;;;1.38;0.82;;;22.20;93.60;;;;;;5038043;28;20214;-57
2022/08/07 08:42:48;;;;;;;1.10;1.00;;;21.80;93.40;;;;;;5055402;28;20207;-57
2022/08/07 08:45:18;;;;;;;0.63;0.60;;;22.10;93.70;;;;;;5055214;28;20175;-57
2022/08/07 08:47:58;;;;;;;1.17;0.85;;;21.90;93.50;;;;;;5055112;28;20182;-56
2022/08/07 08:50:36;;;;;;;1.20;0.80;;;21.50;93.80;;;;;;5054876;28;20185;-57
2022/08/07 08:53:08;;;;;;;1.10;1.00;;;21.70;93.80;;;;;;5055090;28;20167;-59
2022/08/07 08:55:43;;;;;;;1.48;1.10;;;21.80;93.80;;;;;;5054914;28;20164;-57
2022/08/07 08:58:14;;;;;;;0.75;0.68;;;22.00;93.60;;;;;;5054328;28;20171;-56
2022/08/07 09:00:50;;;;;;;1.10;0.63;;;22.10;93.30;;;;;;5054391;28;20214;-57
2022/08/07 09:03:28;;;;;;;0.95;0.90;;;22.10;93.30;;;;;;5055032;28;20177;-47
2022/08/07 09:06:10;;;;;;;1.52;0.82;;;21.90;92.90;;;;;;5054994;28;20171;-51
2022/08/07 09:08:54;;;;;;;1.42;0.90;;;22.00;93.20;;;;;;5054886;28;20175;-57
2022/08/07 09:11:48;;;;;;;0.93;0.93;;;22.30;93.30;;;;;;5053874;28;20644;-57
2022/08/07 09:14:30;;;;;;;1.98;0.98;;;22.80;93.00;;;;;;5054619;28;20187;-59
2022/08/07 09:17:09;;;;;;;1.40;0.93;;;22.70;92.80;;;;;;5054370;28;20182;-58
2022/08/07 09:19:41;;;;;;;1.23;0.80;;;22.90;92.40;;;;;;5054722;28;20194;-58
2022/08/07 09:22:45;;;;;;;1.10;1.00;;;23.10;92.10;;;;;;5054683;28;20175;-59
2022/08/07 09:25:21;;;;;;;0.90;0.88;;;23.30;92.10;;;;;;5054373;28;20179;-58
2022/08/07 09:28:02;;;;;;;0.63;0.63;;;23.10;91.40;;;;;;5054373;28;20207;-58
2022/08/07 09:31:07;;;;;;;1.13;0.85;;;23.30;91.50;;;;;;5054728;28;20182;-58
2022/08/07 09:34:02;;;;;;;0.80;0.80;;;23.10;91.20;;;;;;5052219;28;20640;-59
2022/08/07 09:36:38;;;;;;;2.28;0.90;;;23.10;91.50;;;;;;5054475;28;20171;-57
2022/08/07 09:39:19;;;;;;;0.63;0.60;;;23.00;91.60;;;;;;5036332;28;20569;-59
2022/08/07 09:42:06;;;;;;;1.50;0.90;;;22.90;90.60;;;;;;5054033;28;20556;-56
2022/08/07 09:45:04;;;;;;;1.00;0.63;;;22.90;90.70;;;;;;5054170;28;20171;-56
2022/08/07 09:48:08;;;;;;;0.68;0.50;;;23.30;90.70;;;;;;5034732;28;20194;-58
2022/08/07 09:50:52;;;;;;;0.65;0.60;;;23.50;90.80;;;;;;4973094;28;20208;-57
2022/08/07 09:53:21;;;;;;;0.73;0.73;;;23.70;90.30;;;;;;5047402;28;20227;-57
2022/08/07 09:56:12;;;;;;;1.10;0.77;;;24.20;90.00;;;;;;5053754;28;20167;-57
2022/08/07 09:59:22;;;;;;;0.75;0.65;;;24.30;88.30;;;;;;5036150;28;20171;-60
2022/08/07 10:02:28;;;;;;;0.77;0.73;;;24.10;88.10;;;;;;5024617;28;20202;-58
2022/08/07 10:05:31;;;;;;;0.82;0.70;;;23.70;87.30;;;;;;5052213;28;20248;-57
2022/08/07 10:08:15;;;;;;;1.33;0.70;;;23.70;87.20;;;;;;5053657;28;20174;-59
2022/08/07 10:11:04;;;;;;;0.73;0.65;;;23.80;87.40;;;;;;5053501;28;20629;-57
2022/08/07 10:13:38;;;;;;;0.82;0.65;;;24.30;86.10;;;;;;5053705;28;20221;-57
2022/08/07 10:16:28;;;;;;;1.52;0.82;;;24.50;86.80;;;;;;5053867;28;20193;-55
2022/08/07 10:19:14;;;;;;;1.15;0.93;;;24.40;88.30;;;;;;5053392;28;20524;-57
2022/08/07 10:22:01;;;;;;;0.68;0.68;;;24.50;87.90;;;;;;5053655;28;20221;-57
2022/08/07 10:25:03;;;;;;;0.82;0.75;;;24.50;88.00;;;;;;5053619;28;20199;-57
2022/08/07 10:27:53;;;;;;;0.68;0.60;;;24.40;87.10;;;;;;5053304;28;20604;-56
2022/08/07 10:30:41;;;;;;;1.13;0.60;;;24.60;87.60;;;;;;5053430;28;20714;-57
2022/08/07 10:33:10;;;;;;;1.00;0.80;;;24.90;86.50;;;;;;5053291;28;20536;-57
2022/08/07 10:35:46;;;;;;;1.23;1.08;;;25.10;85.30;;;;;;5053574;28;20172;-57
2022/08/07 10:38:33;;;;;;;1.27;0.77;;;25.10;85.50;;;;;;5035384;28;20501;-57
2022/08/07 10:41:25;;;;;;;0.82;0.80;;;24.90;84.20;;;;;;5052173;28;20730;-57
2022/08/07 10:43:54;;;;;;;0.80;0.68;;;24.90;83.00;;;;;;5053368;28;20174;-57
2022/08/07 10:46:24;;;;;;;0.90;0.70;;;24.50;84.70;;;;;;5052926;28;20177;-57
2022/08/07 10:48:56;;;;;;;1.88;0.80;;;24.50;85.10;;;;;;5053266;28;20171;-57
2022/08/07 10:51:39;;;;;;;2.00;0.82;;;24.40;84.50;;;;;;5053230;28;20198;-57
2022/08/07 10:54:23;;;;;;;1.00;0.60;;;24.20;84.80;;;;;;5053246;28;20175;-57
2022/08/07 10:56:56;;;;;;;0.80;0.77;;;24.40;84.20;;;;;;5035148;28;20670;-57
2022/08/07 10:59:52;;;;;;;1.23;0.77;;;24.40;83.20;;;;;;5053199;28;20584;-57
2022/08/07 11:02:42;;;;;;;1.25;0.88;;;24.50;83.50;;;;;;5053130;28;20663;-57
2022/08/07 11:05:08;;;;;;;0.80;0.65;;;24.90;83.70;;;;;;5033137;28;20597;-57
2022/08/07 11:07:49;;;;;;;1.95;0.80;;;25.20;83.00;;;;;;5053045;28;20211;-57
2022/08/07 11:10:38;;;;;;;1.40;1.00;;;24.80;82.70;;;;;;5053004;28;20178;-57
2022/08/07 11:13:13;;;;;;;1.13;0.73;;;24.40;81.80;;;;;;5006658;28;20203;-57
2022/08/07 11:15:41;;;;;;;0.88;0.70;;;24.50;82.30;;;;;;5034894;28;20186;-56
2022/08/07 11:18:18;;;;;;;1.00;0.90;;;24.70;81.80;;;;;;5053027;28;20305;-57
2022/08/07 11:21:05;;;;;;;0.80;0.75;;;24.60;81.90;;;;;;5052829;28;20203;-57
2022/08/07 11:23:58;;;;;;;1.13;0.80;;;24.60;81.80;;;;;;5052861;28;20649;-57
2022/08/07 11:26:47;;;;;;;0.70;0.68;;;24.40;81.20;;;;;;5052994;28;20167;-59
2022/08/07 11:29:33;;;;;;;0.88;0.80;;;24.50;81.80;;;;;;5052710;28;20559;-57
2022/08/07 11:32:10;;;;;;;1.00;0.80;;;24.90;79.90;;;;;;5052703;28;20171;-57
2022/08/07 11:34:46;;;;;;;1.05;0.80;;;24.70;80.40;;;;;;5052930;28;20630;-57
2022/08/07 11:37:35;;;;;;;1.33;0.70;;;24.80;80.20;;;;;;5052838;28;20158;-57
2022/08/07 11:40:30;;;;;;;1.73;0.70;;;24.90;79.80;;;;;;5038217;28;20218;-57
2022/08/07 11:43:04;;;;;;;1.35;0.90;;;25.40;79.40;;;;;;5052819;28;20571;-56
2022/08/07 11:45:39;;;;;;;0.75;0.65;;;25.30;79.80;;;;;;5052821;28;20261;-57
2022/08/07 11:48:10;;;;;;;0.77;0.77;;;25.40;79.50;;;;;;5052636;28;20170;-57
2022/08/07 11:50:57;;;;;;;0.55;0.55;;;25.30;79.10;;;;;;5052419;28;20278;-57
2022/08/07 11:53:41;;;;;;;1.27;1.02;;;25.70;80.10;;;;;;5056057;28;20636;-57
2022/08/07 11:56:41;;;;;;;1.08;0.68;;;25.40;79.30;;;;;;5056313;28;20258;-57
2022/08/07 11:59:44;;;;;;;0.80;0.70;;;25.50;79.70;;;;;;5055973;28;20205;-57
2022/08/07 12:02:37;;;;;;;1.75;1.00;;;25.00;78.70;;;;;;5038570;28;20195;-57
2022/08/07 12:05:18;;;;;;;1.02;0.70;;;25.10;80.10;;;;;;5055979;28;20545;-58
2022/08/07 12:07:53;;;;;;;0.80;0.60;;;25.10;80.00;;;;;;5055974;28;20217;-57
2022/08/07 12:10:40;;;;;;;0.85;0.63;;;25.10;78.80;;;;;;5056030;28;20179;-57
2022/08/07 12:13:23;;;;;;;0.88;0.70;;;25.20;78.60;;;;;;5055921;28;20197;-58
2022/08/07 12:16:05;;;;;;;0.82;0.65;;;25.00;79.70;;;;;;5056075;28;20207;-58
2022/08/07 12:18:43;;;;;;;0.80;0.70;;;24.70;80.60;;;;;;5055742;28;20183;-57
2022/08/07 12:21:23;;;;;;;1.10;0.90;;;24.70;80.10;;;;;;5055751;28;20302;-56
2022/08/07 12:23:51;;;;;;;1.15;0.90;;;24.90;81.20;;;;;;5055846;28;20176;-58
2022/08/07 12:26:41;;;;;;;2.03;0.88;;;24.90;80.00;;;;;;5055505;28;20163;-57
2022/08/07 12:29:18;;;;;;;0.50;0.50;;;24.70;80.80;;;;;;5055764;28;20167;-57
2022/08/07 12:32:08;;;;;;;1.02;0.80;;;25.00;80.40;;;;;;5037816;28;20563;-58
2022/08/07 12:34:38;;;;;;;0.60;0.60;;;24.80;80.90;;;;;;5055404;28;20187;-57
2022/08/07 12:37:05;;;;;;;2.33;1.05;;;24.90;81.20;;;;;;5055629;28;20640;-58
2022/08/07 12:39:34;;;;;;;1.17;0.80;;;24.90;79.90;;;;;;5055434;28;20211;-57
2022/08/07 12:42:00;;;;;;;0.88;0.55;;;25.10;79.40;;;;;;5055483;28;20241;-57
2022/08/07 12:44:28;;;;;;;1.35;0.63;;;25.50;80.30;;;;;;5055389;28;20171;-58
2022/08/07 12:47:14;;;;;;;0.50;0.50;;;25.40;78.60;;;;;;5055215;28;20171;-58
2022/08/07 12:49:46;;;;;;;0.75;0.75;;;25.40;79.30;;;;;;5055179;28;20171;-57
2022/08/07 12:52:15;;;;;;;1.63;0.70;;;25.50;78.90;;;;;;5055336;28;20182;-58
2022/08/07 12:54:54;;;;;;;0.77;0.77;;;25.20;79.50;;;;;;5055162;28;20168;-58
2022/08/07 12:57:28;;;;;;;0.82;0.70;;;25.20;79.70;;;;;;5055090;28;20167;-57
2022/08/07 12:59:55;;;;;;;1.00;0.93;;;24.70;80.00;;;;;;5054908;28;20285;-57
2022/08/07 13:02:55;;;;;;;0.68;0.68;;;24.70;80.10;;;;;;5037248;28;20176;-58
2022/08/07 13:06:01;;;;;;;0.90;0.70;;;24.90;80.30;;;;;;5054917;28;20199;-57
2022/08/07 13:08:51;;;;;;;0.85;0.70;;;25.30;80.20;;;;;;5037530;28;20167;-57
2022/08/07 13:11:39;;;;;;;0.82;0.80;;;25.20;80.00;;;;;;5055027;28;20190;-57
2022/08/07 13:14:26;;;;;;;0.77;0.70;;;25.30;79.40;;;;;;5054495;28;20759;-57
2022/08/07 13:17:11;;;;;;;1.50;0.75;;;25.20;79.30;;;;;;5054850;28;20168;-57
2022/08/07 13:20:01;;;;;;;0.93;0.65;;;25.30;79.10;;;;;;5036817;28;20298;-57
2022/08/07 13:22:50;;;;;;;0.82;0.70;;;25.40;78.60;;;;;;5054469;28;20228;-57
2022/08/07 13:25:41;;;;;;;1.48;1.00;;;25.10;78.60;;;;;;5054570;28;20252;-57